Time;durP1;ratioP1;P1;durP2;ratioP2;P2;SDS_P1;SDS_P2;PMS_P1;PMS_P2;Temp;Humidity;BMP_temperature;BMP_pressure;BME280_temperature;BME280_humidity;BME280_pressure;Samples;Min_cycle;Max_cycle;Signal;HPM_P1;HPM_P2
2022/09/09 00:01:55;;;;;;;;;3.00;3.00;;;;;17.96;100.00;100689.84;5094203;27;45601;-74
2022/09/09 00:04:28;;;;;;;;;3.00;1.33;;;;;17.97;100.00;100680.91;5093298;27;45716;-74
2022/09/09 00:06:59;;;;;;;;;5.00;2.00;;;;;17.97;100.00;100691.59;5086492;27;45878;-73
2022/09/09 00:09:28;;;;;;;;;3.00;3.00;;;;;17.97;100.00;100680.91;5092859;27;45849;-75
2022/09/09 00:12:15;;;;;;;;;1.67;1.33;;;;;18.00;100.00;100683.47;5086007;27;45565;-75
2022/09/09 00:14:53;;;;;;;;;6.67;3.00;;;;;17.99;100.00;100677.25;5093346;27;46864;-75
2022/09/09 00:17:46;;;;;;;;;5.67;3.00;;;;;18.02;100.00;100685.22;5074029;27;46759;-74
2022/09/09 00:20:23;;;;;;;;;3.67;3.67;;;;;18.02;100.00;100679.88;5092816;27;45485;-75
2022/09/09 00:23:12;;;;;;;;;4.00;4.00;;;;;17.98;100.00;100683.53;5072548;27;45468;-75
2022/09/09 00:26:17;;;;;;;;;8.33;2.67;;;;;17.99;100.00;100687.06;5077299;27;46776;-74
2022/09/09 00:29:05;;;;;;;;;4.00;2.33;;;;;17.94;100.00;100692.50;5053187;27;46018;-75
2022/09/09 00:31:31;;;;;;;;;8.33;3.00;;;;;17.91;100.00;100678.38;5070686;27;45450;-75
2022/09/09 00:34:02;;;;;;;;;3.33;2.33;;;;;17.92;100.00;100677.44;5093149;27;45480;-72
2022/09/09 00:36:28;;;;;;;;;3.33;2.00;;;;;17.96;100.00;100679.16;5092933;27;46754;-76
2022/09/09 00:39:00;;;;;;;;;4.00;4.00;;;;;17.96;100.00;100679.16;5074218;27;45599;-74
2022/09/09 00:41:28;;;;;;;;;4.67;2.00;;;;;18.02;100.00;100679.88;5075542;27;45734;-73
2022/09/09 00:44:00;;;;;;;;;3.00;2.00;;;;;18.05;100.00;100674.44;5089853;27;45739;-74
2022/09/09 00:46:39;;;;;;;;;3.00;2.33;;;;;18.09;100.00;100674.41;5088850;27;46728;-74
2022/09/09 00:49:37;;;;;;;;;3.00;3.00;;;;;18.10;100.00;100687.72;5092555;27;45684;-76
2022/09/09 00:52:24;;;;;;;;;5.33;2.33;;;;;18.09;100.00;100669.94;5065413;27;45466;-74
2022/09/09 00:54:55;;;;;;;;;5.33;1.00;;;;;18.08;100.00;100669.97;5093808;27;45713;-74
2022/09/09 00:57:32;;;;;;;;;2.67;2.00;;;;;18.04;100.00;100670.03;5092781;27;46467;-73
2022/09/09 01:00:15;;;;;;;;;4.00;3.00;;;;;18.09;100.00;100669.06;5092633;27;45451;-73
2022/09/09 01:02:50;;;;;;;;;4.67;3.00;;;;;18.12;100.00;100675.22;5092933;27;46022;-75
2022/09/09 01:05:46;;;;;;;;;4.00;2.67;;;;;18.14;100.00;100670.72;5092316;27;45568;-73
2022/09/09 01:08:39;;;;;;;;;5.00;2.00;;;;;18.16;100.00;100681.34;5080891;27;46645;-76
2022/09/09 01:11:10;;;;;;;;;2.00;2.00;;;;;18.17;100.00;100667.97;5077944;27;45500;-75
2022/09/09 01:13:36;;;;;;;;;4.67;2.00;;;;;18.21;100.00;100661.63;5071709;27;45504;-75
2022/09/09 01:16:05;;;;;;;;;4.00;3.00;;;;;18.24;100.00;100672.25;5092066;27;60806;-74
2022/09/09 01:18:35;;;;;;;;;3.00;3.00;;;;;18.25;100.00;100667.78;5091841;27;46605;-75
2022/09/09 01:21:00;;;;;;;;;6.00;3.00;;;;;18.27;100.00;100664.19;5071485;27;45517;-73
2022/09/09 01:23:54;;;;;;;;;2.67;2.33;;;;;18.29;100.00;100681.06;5092478;27;45387;-74
2022/09/09 01:26:28;;;;;;;;;4.00;2.33;;;;;18.26;100.00;100675.75;5088544;27;45526;-76
2022/09/09 01:28:54;;;;;;;;;3.67;2.67;;;;;18.29;100.00;100656.13;5092343;27;46152;-75
2022/09/09 01:31:33;;;;;;;;;3.00;3.00;;;;;18.30;100.00;100669.44;5092663;27;45433;-75
2022/09/09 01:33:58;;;;;;;;;8.00;3.00;;;;;18.30;100.00;100669.44;5073723;27;45561;-73
2022/09/09 01:36:39;;;;;;;;;9.33;3.33;;;;;18.35;100.00;100676.47;5092723;27;45363;-74
2022/09/09 01:39:04;;;;;;;;;4.33;4.00;;;;;18.34;100.00;100670.25;5070066;28;46171;-72
2022/09/09 01:41:29;;;;;;;;;2.33;2.33;;;;;18.39;100.00;100673.69;5063380;27;65845;-75
2022/09/09 01:43:55;;;;;;;;;4.00;3.00;;;;;18.40;100.00;100667.44;5091110;27;61063;-73
2022/09/09 01:46:22;;;;;;;;;4.00;2.00;;;;;18.45;100.00;100680.69;5070934;27;59016;-73
2022/09/09 01:59:02;;;;;;;;;4.00;2.00;;;;;18.51;100.00;100673.41;5091828;27;45442;-73
2022/09/09 02:01:36;;;;;;;;;5.33;4.00;;;;;18.50;100.00;100655.59;5073107;27;45458;-73
2022/09/09 02:04:10;;;;;;;;;4.00;3.00;;;;;18.51;100.00;100657.34;5074805;27;45548;-74
2022/09/09 02:06:38;;;;;;;;;2.33;2.33;;;;;18.53;100.00;100657.31;5073320;27;45749;-75
2022/09/09 02:09:05;;;;;;;;;6.33;2.00;;;;;18.52;100.00;100647.53;5095445;27;45735;-74
2022/09/09 02:11:32;;;;;;;;;4.00;3.00;;;;;18.53;100.00;100652.84;5069652;27;46074;-73
2022/09/09 02:14:01;;;;;;;;;3.00;2.00;;;;;18.51;100.00;100643.97;5069880;27;65216;-74
2022/09/09 02:16:42;;;;;;;;;5.67;3.00;;;;;18.50;100.00;100644.03;5069104;28;45537;-74
2022/09/09 02:19:11;;;;;;;;;6.00;3.00;;;;;18.46;100.00;100642.34;5074491;27;45611;-73
2022/09/09 02:21:37;;;;;;;;;2.00;2.00;;;;;18.41;100.00;100652.25;5070918;28;46565;-74
2022/09/09 02:24:07;;;;;;;;;2.00;2.00;;;;;18.40;100.00;100648.72;5071261;28;52464;-75
2022/09/09 02:26:33;;;;;;;;;4.00;4.00;;;;;18.35;100.00;100642.59;5070914;28;45498;-74
2022/09/09 02:29:03;;;;;;;;;6.67;1.67;;;;;18.36;100.00;100638.13;5073367;28;45641;-73
2022/09/09 02:31:28;;;;;;;;;4.00;3.00;;;;;18.36;100.00;100633.66;5067170;28;47738;-74
2022/09/09 02:34:00;;;;;;;;;4.67;2.00;;;;;18.35;100.00;100641.72;5073523;27;68360;-75
2022/09/09 02:36:28;;;;;;;;;4.00;2.33;;;;;18.30;100.00;100637.38;5067653;28;45811;-73
2022/09/09 02:38:54;;;;;;;;;5.67;3.00;;;;;18.31;100.00;100633.75;5070143;28;45592;-74
2022/09/09 02:41:24;;;;;;;;;7.33;2.67;;;;;18.33;100.00;100631.97;5062529;28;46647;-74
2022/09/09 02:43:50;;;;;;;;;4.00;3.33;;;;;18.37;100.00;100627.38;5067959;28;45378;-73
2022/09/09 02:46:28;;;;;;;;;4.00;2.33;;;;;18.40;100.00;100623.78;5073851;27;58052;-73
2022/09/09 02:49:20;;;;;;;;;6.33;3.00;;;;;18.42;100.00;100625.47;5074905;28;45584;-74
2022/09/09 02:52:10;;;;;;;;;6.00;4.00;;;;;18.45;100.00;100625.44;5050467;27;45864;-73
2022/09/09 02:54:38;;;;;;;;;3.00;3.00;;;;;18.45;100.00;100617.41;5066882;27;45466;-74
2022/09/09 02:57:25;;;;;;;;;4.67;3.00;;;;;18.47;100.00;100623.56;5073578;28;45509;-74
2022/09/09 02:59:55;;;;;;;;;10.00;3.33;;;;;18.47;100.00;100626.25;5071710;28;45492;-74
2022/09/09 03:02:20;;;;;;;;;5.67;3.00;;;;;18.51;100.00;100625.28;5072962;27;46334;-72
2022/09/09 03:04:50;;;;;;;;;6.67;2.67;;;;;18.51;100.00;100624.41;5072940;27;64396;-74
2022/09/09 03:07:16;;;;;;;;;4.33;3.00;;;;;18.42;100.00;100611.25;5074170;27;45566;-73
2022/09/09 03:09:42;;;;;;;;;3.00;3.00;;;;;18.44;100.00;100617.44;5073764;27;45622;-74
2022/09/09 03:12:07;;;;;;;;;1.67;1.00;;;;;18.41;100.00;100622.84;5067638;27;45523;-73
2022/09/09 03:14:33;;;;;;;;;3.33;3.00;;;;;18.37;100.00;100623.84;5073702;27;66864;-74
2022/09/09 03:17:00;;;;;;;;;6.00;3.00;;;;;18.32;100.00;100626.63;5088379;27;61438;-74
2022/09/09 03:19:27;;;;;;;;;3.67;2.67;;;;;18.31;100.00;100625.75;5094752;27;45625;-74
2022/09/09 03:21:53;;;;;;;;;3.33;3.00;;;;;18.29;100.00;100632.94;5093102;27;45794;-75
2022/09/09 03:24:18;;;;;;;;;3.67;3.67;;;;;18.32;100.00;100632.88;5094281;27;46118;-74
2022/09/09 03:26:47;;;;;;;;;3.67;3.67;;;;;18.34;100.00;100635.50;5093185;27;63443;-74
2022/09/09 03:29:12;;;;;;;;;4.00;3.00;;;;;18.38;100.00;100626.50;5094417;27;45560;-74
2022/09/09 03:31:38;;;;;;;;;4.33;2.00;;;;;18.33;100.00;100618.59;5093446;27;71674;-74
2022/09/09 03:34:04;;;;;;;;;5.33;2.33;;;;;18.40;100.00;100621.09;5093576;27;45511;-75
2022/09/09 03:36:30;;;;;;;;;5.00;3.00;;;;;18.38;100.00;100614.94;5093146;27;59776;-74
2022/09/09 03:38:55;;;;;;;;;5.67;4.00;;;;;18.32;100.00;100606.16;5093223;27;45446;-74
2022/09/09 03:41:23;;;;;;;;;4.00;2.00;;;;;18.32;100.00;100606.16;5094150;27;46105;-74
2022/09/09 03:43:51;;;;;;;;;6.67;2.00;;;;;18.31;100.00;100606.16;5068156;27;45552;-73
2022/09/09 03:46:18;;;;;;;;;3.67;3.00;;;;;18.25;100.00;100604.50;5093892;27;45587;-73
2022/09/09 03:48:44;;;;;;;;;5.00;3.67;;;;;18.18;100.00;100608.25;5094195;27;45604;-74
2022/09/09 03:51:10;;;;;;;;;4.00;4.00;;;;;18.22;100.00;100615.31;5093748;27;45939;-74
2022/09/09 03:53:37;;;;;;;;;3.33;3.00;;;;;18.22;100.00;100609.97;5094054;27;45485;-74
2022/09/09 03:56:04;;;;;;;;;3.00;3.00;;;;;18.22;100.00;100606.41;5094379;27;45545;-73
2022/09/09 03:58:29;;;;;;;;;4.00;3.00;;;;;18.21;100.00;100623.34;5093628;27;46033;-74
2022/09/09 04:00:54;;;;;;;;;2.00;2.00;;;;;18.19;100.00;100618.03;5093587;27;60638;-73
2022/09/09 04:03:20;;;;;;;;;4.33;3.00;;;;;18.17;100.00;100614.53;5095673;27;45457;-74
2022/09/09 04:05:48;;;;;;;;;7.67;3.00;;;;;18.17;100.00;100619.00;5093864;27;60980;-74
2022/09/09 04:08:14;;;;;;;;;4.00;2.67;;;;;18.15;100.00;100620.81;5094648;27;45540;-73
2022/09/09 04:10:39;;;;;;;;;7.33;3.67;;;;;18.18;100.00;100615.41;5087894;27;46426;-74
2022/09/09 04:13:05;;;;;;;;;4.00;3.33;;;;;18.16;100.00;100612.75;5093849;27;45624;-73
2022/09/09 04:15:31;;;;;;;;;3.00;3.00;;;;;18.17;100.00;100606.50;5092779;27;60473;-72
2022/09/09 04:17:56;;;;;;;;;4.67;3.33;;;;;18.18;100.00;100610.94;5094555;27;47024;-73
2022/09/09 04:20:22;;;;;;;;;7.00;4.00;;;;;18.20;100.00;100603.75;5093793;27;46306;-73
2022/09/09 04:22:47;;;;;;;;;6.00;2.67;;;;;18.20;100.00;100616.25;5093640;27;45749;-75
2022/09/09 04:25:13;;;;;;;;;9.00;3.67;;;;;18.17;100.00;100608.31;5093680;27;45510;-74
2022/09/09 04:27:39;;;;;;;;;7.67;2.00;;;;;18.16;100.00;100610.06;5093208;27;45402;-74
2022/09/09 04:30:04;;;;;;;;;3.00;3.00;;;;;18.16;100.00;100611.88;5092611;27;45517;-74
2022/09/09 04:32:32;;;;;;;;;4.67;2.00;;;;;18.15;100.00;100616.34;5093630;27;45576;-75
2022/09/09 04:34:58;;;;;;;;;7.00;2.67;;;;;18.14;100.00;100627.06;5092067;27;45460;-75
2022/09/09 04:37:24;;;;;;;;;3.00;3.00;;;;;18.13;100.00;100614.63;5086986;27;50362;-74
2022/09/09 04:39:50;;;;;;;;;4.33;3.00;;;;;18.14;100.00;100624.41;5091426;27;46392;-74
2022/09/09 04:42:16;;;;;;;;;3.00;2.00;;;;;18.13;100.00;100611.97;5093143;27;45950;-75
2022/09/09 04:44:41;;;;;;;;;6.00;3.67;;;;;18.13;100.00;100618.19;5093200;27;45552;-75
2022/09/09 04:47:07;;;;;;;;;5.33;3.00;;;;;18.13;100.00;100612.84;5089983;27;48555;-73
2022/09/09 04:49:32;;;;;;;;;6.00;3.33;;;;;18.12;100.00;100619.09;5091283;27;46284;-74
2022/09/09 04:51:57;;;;;;;;;8.00;3.00;;;;;18.11;100.00;100613.78;5074025;27;50846;-73
2022/09/09 04:54:23;;;;;;;;;5.67;2.67;;;;;18.15;100.00;100626.16;5090142;27;45509;-76
2022/09/09 04:56:50;;;;;;;;;4.33;4.00;;;;;18.16;100.00;100614.53;5090580;27;53589;-74
2022/09/09 04:59:16;;;;;;;;;5.67;2.00;;;;;18.15;100.00;100613.66;5091042;27;47371;-74
2022/09/09 05:01:41;;;;;;;;;5.33;2.33;;;;;18.18;100.00;100626.97;5091695;27;45789;-73
2022/09/09 05:04:06;;;;;;;;;3.00;3.00;;;;;18.18;100.00;100629.66;5091094;27;62202;-73
2022/09/09 05:06:32;;;;;;;;;8.67;4.67;;;;;18.15;100.00;100628.81;5091444;27;55785;-74
2022/09/09 05:08:57;;;;;;;;;3.00;1.33;;;;;18.14;100.00;100624.41;5091790;27;56798;-73
2022/09/09 05:11:27;;;;;;;;;6.67;2.00;;;;;18.14;100.00;100635.97;5090163;27;45505;-73
2022/09/09 05:13:53;;;;;;;;;6.67;3.00;;;;;18.11;100.00;100636.06;5092361;27;45450;-73
2022/09/09 05:16:19;;;;;;;;;7.00;3.00;;;;;18.11;100.00;100645.84;5092883;27;45716;-75
2022/09/09 05:18:45;;;;;;;;;5.00;4.00;;;;;18.09;100.00;100637.00;5072457;27;46500;-74
2022/09/09 05:21:12;;;;;;;;;3.67;2.67;;;;;18.13;100.00;100644.91;5089389;27;45571;-73
2022/09/09 05:23:38;;;;;;;;;4.33;3.00;;;;;18.16;100.00;100641.25;5090240;27;45511;-73
2022/09/09 05:26:04;;;;;;;;;4.00;4.00;;;;;18.19;100.00;100641.22;5092313;27;45433;-73
2022/09/09 05:28:30;;;;;;;;;5.67;4.00;;;;;18.19;100.00;100635.88;5090230;27;46433;-73
2022/09/09 05:31:00;;;;;;;;;5.00;2.00;;;;;18.21;100.00;100631.34;5090937;27;45423;-75
2022/09/09 05:33:26;;;;;;;;;3.00;3.00;;;;;18.26;100.00;100624.97;5087733;27;45729;-75
2022/09/09 05:35:59;;;;;;;;;8.00;2.67;;;;;18.28;100.00;100628.50;5092427;27;45452;-72
2022/09/09 05:38:25;;;;;;;;;2.67;2.67;;;;;18.30;100.00;100634.69;5083337;27;47467;-76
2022/09/09 05:40:52;;;;;;;;;7.00;2.67;;;;;18.36;100.00;100639.00;5081855;27;45887;-73
2022/09/09 05:43:17;;;;;;;;;4.00;3.00;;;;;18.40;100.00;100629.13;5068479;27;45548;-73
2022/09/09 05:45:43;;;;;;;;;3.33;3.33;;;;;18.40;100.00;100630.00;5092213;27;45536;-74
2022/09/09 05:48:08;;;;;;;;;5.67;3.33;;;;;18.41;100.00;100646.91;5085821;27;71720;-73
2022/09/09 05:50:33;;;;;;;;;5.00;3.33;;;;;18.42;100.00;100633.50;5078701;27;45557;-73
2022/09/09 05:52:59;;;;;;;;;4.00;2.00;;;;;18.49;100.00;100639.59;5080792;27;61474;-74
2022/09/09 05:55:25;;;;;;;;;10.33;4.00;;;;;18.52;100.00;100631.50;5085465;27;55168;-73
2022/09/09 05:57:51;;;;;;;;;7.67;4.00;;;;;18.57;100.00;100632.25;5079893;27;46315;-73
2022/09/09 06:00:17;;;;;;;;;3.00;3.00;;;;;18.61;100.00;100643.75;5084426;27;45486;-75
2022/09/09 06:02:43;;;;;;;;;8.67;3.00;;;;;18.62;100.00;100635.69;5085178;27;45524;-74
2022/09/09 06:05:08;;;;;;;;;5.67;3.33;;;;;18.61;100.00;100641.97;5085046;27;45530;-72
2022/09/09 06:07:34;;;;;;;;;7.33;4.00;;;;;18.59;100.00;100638.47;5090144;27;45456;-72
2022/09/09 06:09:59;;;;;;;;;8.67;3.00;;;;;18.54;100.00;100646.59;5089983;27;45524;-72
2022/09/09 06:12:25;;;;;;;;;5.00;1.33;;;;;18.45;100.00;100643.25;5088354;27;45690;-73
2022/09/09 06:14:51;;;;;;;;;8.00;6.00;;;;;18.43;100.00;100640.63;5088583;27;59145;-70
2022/09/09 06:17:17;;;;;;;;;6.00;2.00;;;;;18.39;100.00;100644.28;5092317;27;45869;-70
2022/09/09 06:19:42;;;;;;;;;6.00;3.67;;;;;18.40;100.00;100639.81;5090712;27;59414;-70
2022/09/09 06:22:09;;;;;;;;;6.00;4.00;;;;;18.35;100.00;100650.63;5092625;27;46390;-72
2022/09/09 06:24:34;;;;;;;;;2.33;2.33;;;;;18.36;100.00;100659.50;5092173;27;45565;-70
2022/09/09 06:27:00;;;;;;;;;4.67;2.33;;;;;18.32;100.00;100645.34;5090618;27;45682;-70
2022/09/09 06:29:25;;;;;;;;;8.67;3.00;;;;;18.33;100.00;100660.47;5089906;27;45433;-70
2022/09/09 06:31:50;;;;;;;;;6.00;4.00;;;;;18.33;100.00;100647.13;5090046;27;45604;-72
2022/09/09 06:34:16;;;;;;;;;2.33;2.33;;;;;18.38;100.00;100644.34;5091183;27;45580;-70
2022/09/09 06:36:41;;;;;;;;;2.00;2.00;;;;;18.43;100.00;100642.41;5083440;27;66039;-72
2022/09/09 06:39:08;;;;;;;;;5.67;3.33;;;;;18.54;100.00;100645.72;5087634;27;45816;-72
2022/09/09 06:41:34;;;;;;;;;5.67;3.00;;;;;18.59;100.00;100642.00;5087195;27;45470;-73
2022/09/09 06:43:59;;;;;;;;;6.00;4.00;;;;;18.70;100.00;100638.22;5087841;27;45297;-72
2022/09/09 06:46:30;;;;;;;;;11.00;3.33;;;;;18.77;100.00;100637.13;5087793;27;46636;-72
2022/09/09 06:48:57;;;;;;;;;4.00;3.00;;;;;18.85;100.00;100645.81;5090587;27;46582;-73
2022/09/09 06:51:23;;;;;;;;;4.00;3.00;;;;;18.92;100.00;100646.56;5092048;27;45382;-74
2022/09/09 06:53:54;;;;;;;;;3.00;3.00;;;;;18.95;100.00;100643.78;5088187;27;45378;-73
2022/09/09 06:56:20;;;;;;;;;2.00;2.00;;;;;19.00;100.00;100657.94;5094008;27;46314;-73
2022/09/09 06:58:46;;;;;;;;;2.00;1.33;;;;;19.05;100.00;100661.38;5093564;27;45563;-76
2022/09/09 07:01:16;;;;;;;;;6.33;1.67;;;;;19.09;100.00;100650.53;5094906;27;45517;-74
2022/09/09 07:03:45;;;;;;;;;5.33;3.00;;;;;19.07;100.00;100641.69;5094607;27;45740;-73
2022/09/09 07:06:16;;;;;;;;;2.33;2.33;;;;;19.12;100.00;100652.25;5094410;27;46951;-74
2022/09/09 07:08:42;;;;;;;;;9.67;2.33;;;;;19.18;100.00;100654.78;5093587;27;45605;-73
2022/09/09 07:11:08;;;;;;;;;3.67;2.67;;;;;19.21;100.00;100654.69;5091957;27;63968;-73
2022/09/09 07:13:34;;;;;;;;;3.67;2.67;;;;;19.22;100.00;100652.88;5093731;27;60604;-73
2022/09/09 07:16:10;;;;;;;;;2.00;2.00;;;;;19.26;100.00;100657.22;5092927;27;46583;-73
2022/09/09 07:18:35;;;;;;;;;5.33;2.33;;;;;19.26;100.00;100658.09;5093853;27;45907;-73
2022/09/09 07:21:02;;;;;;;;;2.00;2.00;;;;;19.29;100.00;100652.69;5094134;27;45854;-73
2022/09/09 07:23:28;;;;;;;;;5.33;3.00;;;;;19.34;100.00;100657.91;5093523;27;45632;-72
2022/09/09 07:25:54;;;;;;;;;3.33;1.33;;;;;19.34;100.00;100668.63;5094077;27;45820;-73
2022/09/09 07:28:20;;;;;;;;;4.00;2.00;;;;;19.31;100.00;100661.53;5093617;27;45850;-73
2022/09/09 07:31:02;;;;;;;;;3.33;2.67;;;;;19.35;100.00;100670.38;5093565;27;45577;-73
2022/09/09 07:33:30;;;;;;;;;4.33;2.00;;;;;19.42;100.00;100676.44;5094164;27;45397;-73
2022/09/09 07:36:06;;;;;;;;;3.00;3.00;;;;;19.48;100.00;100676.25;5094199;27;46963;-73
2022/09/09 07:38:43;;;;;;;;;7.33;1.33;;;;;19.49;100.00;100678.00;5093471;27;45425;-73
2022/09/09 07:41:13;;;;;;;;;6.00;1.33;;;;;19.47;100.00;100691.44;5093870;27;45425;-73
2022/09/09 07:43:40;;;;;;;;;3.33;1.33;;;;;19.48;100.00;100687.84;5092852;27;45366;-74
2022/09/09 07:46:05;;;;;;;;;5.00;2.67;;;;;19.51;100.00;100682.41;5070440;27;45870;-73
2022/09/09 07:48:31;;;;;;;;;1.67;1.67;;;;;19.56;100.00;100695.69;5094483;27;45458;-73
2022/09/09 07:51:08;;;;;;;;;3.67;2.00;;;;;19.59;100.00;100682.22;5094252;27;45504;-74
2022/09/09 07:53:35;;;;;;;;;3.33;0.67;;;;;19.64;100.00;100693.69;5094496;27;45556;-74
2022/09/09 07:56:09;;;;;;;;;5.33;2.00;;;;;19.62;100.00;100692.84;5075766;27;47594;-73
2022/09/09 07:58:36;;;;;;;;;3.67;1.67;;;;;19.61;100.00;100683.94;5094250;27;45472;-74
2022/09/09 08:01:08;;;;;;;;;6.67;1.33;;;;;19.59;100.00;100690.25;5094112;27;45475;-74
2022/09/09 08:03:33;;;;;;;;;3.67;2.00;;;;;19.52;100.00;100692.19;5093666;27;45708;-73
2022/09/09 08:06:09;;;;;;;;;2.67;2.33;;;;;19.60;100.00;100698.25;5093381;27;45770;-73
2022/09/09 08:08:35;;;;;;;;;2.67;0.67;;;;;19.62;100.00;100698.22;5091338;27;45563;-74
2022/09/09 08:11:19;;;;;;;;;7.33;3.00;;;;;19.67;100.00;100700.75;5090788;27;45566;-73
2022/09/09 08:13:45;;;;;;;;;1.67;1.67;;;;;19.71;100.00;100695.28;5086471;27;46710;-74
2022/09/09 08:16:14;;;;;;;;;3.67;2.00;;;;;19.77;100.00;100704.94;5093501;27;47752;-73
2022/09/09 08:18:39;;;;;;;;;3.33;1.67;;;;;19.81;100.00;100702.09;5092799;27;45889;-73
2022/09/09 08:21:11;;;;;;;;;2.00;1.67;;;;;19.78;100.00;100704.88;5093905;27;45543;-73
2022/09/09 08:23:41;;;;;;;;;3.33;1.67;;;;;19.81;100.00;100699.41;5093472;27;45590;-73
2022/09/09 08:26:17;;;;;;;;;3.33;1.33;;;;;19.88;100.00;100697.47;5092874;27;47532;-74
2022/09/09 08:28:43;;;;;;;;;4.33;1.33;;;;;19.96;100.00;100715.97;5092937;27;45736;-74
2022/09/09 08:31:17;;;;;;;;;0.67;0.67;;;;;19.96;100.00;100710.63;5093836;27;45558;-73
2022/09/09 08:33:45;;;;;;;;;3.33;1.00;;;;;19.96;100.00;100710.63;5093215;27;45633;-74
2022/09/09 08:36:15;;;;;;;;;5.67;0.67;;;;;20.01;100.00;100712.22;5090496;27;47011;-74
2022/09/09 08:38:41;;;;;;;;;2.33;1.00;;;;;20.12;100.00;100712.78;5093747;27;45375;-73
2022/09/09 08:41:34;;;;;;;;;2.67;2.00;;;;;20.29;100.00;100712.28;5094359;27;45789;-73
2022/09/09 08:44:05;;;;;;;;;6.00;1.00;;;;;20.38;100.00;100720.03;5093652;27;45547;-73
2022/09/09 08:46:56;;;;;;;;;5.00;3.00;;;;;20.47;100.00;100713.56;5092731;27;46689;-74
2022/09/09 08:49:31;;;;;;;;;2.00;2.00;;;;;20.45;100.00;100723.41;5063067;27;45474;-74
2022/09/09 08:51:57;;;;;;;;;3.00;2.00;;;;;20.32;100.00;100722.91;5092987;27;45445;-73
2022/09/09 08:54:23;;;;;;;;;2.33;1.67;;;;;20.27;100.00;100706.09;5072364;27;57021;-74
2022/09/09 08:56:49;;;;;;;;;0.67;0.67;;;;;20.28;100.00;100723.94;5092844;27;45640;-73
2022/09/09 08:59:18;;;;;;;;;2.67;2.00;;;;;20.31;100.00;100721.16;5074598;27;45660;-73
2022/09/09 09:02:15;;;;;;;;;2.00;2.00;;;;;20.33;100.00;100730.03;5074514;27;45482;-75
2022/09/09 09:04:44;;;;;;;;;7.33;2.00;;;;;20.34;100.00;100734.47;5090941;27;45453;-75
2022/09/09 09:07:41;;;;;;;;;3.00;1.00;;;;;20.41;100.00;100736.03;5092574;27;47298;-73
2022/09/09 09:10:12;;;;;;;;;4.67;1.67;;;;;20.46;100.00;100737.72;5089150;27;45584;-73
2022/09/09 09:12:47;;;;;;;;;0.00;0.00;;;;;20.50;100.00;100728.66;5080457;27;45463;-74
2022/09/09 09:15:25;;;;;;;;;1.33;1.33;;;;;20.59;100.00;100742.66;5072467;27;45847;-73
2022/09/09 09:17:51;;;;;;;;;1.00;1.00;;;;;20.75;100.00;100753.78;5089092;27;46919;-74
2022/09/09 09:20:20;;;;;;;;;2.00;2.00;;;;;20.84;100.00;100748.13;5091810;27;45552;-73
2022/09/09 09:22:50;;;;;;;;;1.00;1.00;;;;;21.00;100.00;100740.44;5093128;27;45697;-74
2022/09/09 09:25:24;;;;;;;;;3.00;1.00;;;;;21.14;100.00;100751.56;5092369;27;45476;-74
2022/09/09 09:28:17;;;;;;;;;7.33;2.00;;;;;21.20;100.00;100755.88;5087202;27;47550;-75
2022/09/09 09:31:11;;;;;;;;;2.33;1.00;;;;;21.23;100.00;100753.06;5092892;27;45906;-73
2022/09/09 09:33:52;;;;;;;;;2.67;2.00;;;;;21.32;100.00;100759.97;5086213;27;45655;-74
2022/09/09 09:36:19;;;;;;;;;2.00;1.00;;;;;21.40;100.00;100774.00;5092427;27;45474;-74
2022/09/09 09:38:57;;;;;;;;;3.00;1.00;;;;;21.41;100.00;100771.28;5073288;27;45466;-74
2022/09/09 09:41:35;;;;;;;;;3.00;2.00;;;;;21.42;100.00;100769.47;5091715;27;45614;-74
2022/09/09 09:44:01;;;;;;;;;4.00;1.00;;;;;21.44;100.00;100778.34;5068902;27;45520;-74
2022/09/09 09:46:27;;;;;;;;;2.33;1.00;;;;;21.47;100.00;100769.31;5092407;27;45582;-73
2022/09/09 09:49:05;;;;;;;;;4.00;2.00;;;;;21.51;100.00;100773.63;5070391;27;47495;-74
2022/09/09 09:51:32;;;;;;;;;3.67;1.00;;;;;21.59;100.00;100774.25;5092209;27;45522;-74
2022/09/09 09:54:27;;;;;;;;;1.00;1.00;;;;;21.64;100.00;100772.28;5074584;27;45830;-74
2022/09/09 09:56:53;;;;;;;;;1.33;0.67;;;;;21.63;100.00;100774.09;5045360;27;45570;-74
2022/09/09 09:59:27;;;;;;;;;1.33;1.00;;;;;21.61;100.00;100775.94;5090674;27;62219;-73
2022/09/09 10:01:52;;;;;;;;;2.67;1.67;;;;;21.55;100.00;100784.22;5092441;27;45433;-74
2022/09/09 10:04:23;;;;;;;;;1.33;1.33;;;;;21.49;100.00;100784.44;5072838;27;64300;-73
2022/09/09 10:06:49;;;;;;;;;1.33;1.00;;;;;21.41;100.00;100782.03;5092368;27;45655;-73
2022/09/09 10:09:23;;;;;;;;;2.00;2.00;;;;;21.39;100.00;100794.63;5090246;27;45711;-73
2022/09/09 10:12:04;;;;;;;;;0.00;0.00;;;;;21.38;100.00;100789.31;5086109;27;45473;-74
2022/09/09 10:17:20;;;;;;;;;2.33;2.33;;;;;21.37;100.00;100783.06;5180249;22;63155;-74
2022/09/09 10:20:19;;;;;;;;;2.00;2.00;;;;;21.45;100.00;100786.34;5089564;27;45550;-73
2022/09/09 10:22:49;;;;;;;;;4.00;1.00;;;;;21.63;100.00;100783.97;5091966;27;45930;-74
2022/09/09 10:25:26;;;;;;;;;2.00;2.00;;;;;21.88;100.00;100786.63;5092595;27;45552;-73
2022/09/09 10:28:10;;;;;;;;;2.67;1.00;;;;;22.09;100.00;100793.03;5088455;27;45501;-73
2022/09/09 10:30:49;;;;;;;;;2.67;1.00;;;;;22.16;100.00;100800.00;5095188;27;47364;-76
2022/09/09 10:33:41;;;;;;;;;3.67;2.33;;;;;22.15;100.00;100798.22;5094888;27;45820;-74
2022/09/09 10:36:28;;;;;;;;;1.00;0.67;;;;;22.22;100.00;100802.44;5071192;27;45493;-74
2022/09/09 10:39:25;;;;;;;;;1.00;1.00;;;;;22.21;100.00;100781.84;5092528;27;45617;-75
2022/09/09 10:42:13;;;;;;;;;3.00;2.00;;;;;22.19;100.00;100781.03;5095162;27;46594;-74
2022/09/09 10:44:53;;;;;;;;;1.00;1.00;;;;;22.16;100.00;100792.81;5073269;27;45529;-73
2022/09/09 10:47:49;;;;;;;;;4.00;3.00;;;;;22.17;100.00;100791.88;5088566;27;45582;-74
2022/09/09 10:50:43;;;;;;;;;1.00;1.00;;;;;22.19;100.00;100789.97;5070293;27;45761;-74
2022/09/09 10:53:33;;;;;;;;;1.00;1.00;;;;;22.27;100.00;100792.41;5070846;27;46224;-72
2022/09/09 10:56:04;;;;;;;;;1.67;1.33;;;;;22.27;100.00;100789.72;5095757;27;45389;-73
2022/09/09 10:58:41;;;;;;;;;2.00;1.00;;;;;22.21;100.00;100788.13;5076633;27;45765;-74
2022/09/09 11:01:15;;;;;;;;;1.33;1.33;;;;;22.17;100.00;100786.47;5093660;27;45484;-74
2022/09/09 11:03:42;;;;;;;;;3.00;2.00;;;;;22.18;100.00;100788.22;5094526;27;46526;-73
2022/09/09 11:06:19;;;;;;;;;1.00;1.00;;;;;22.16;100.00;100783.84;5076471;27;45925;-74
2022/09/09 11:08:45;;;;;;;;;3.67;1.00;;;;;22.26;100.00;100787.06;5075696;27;45537;-73
2022/09/09 11:11:12;;;;;;;;;1.00;1.00;;;;;22.36;100.00;100785.75;5076012;27;56991;-74
2022/09/09 11:13:54;;;;;;;;;3.33;2.00;;;;;22.47;100.00;100787.09;5074842;27;47439;-73
2022/09/09 11:16:23;;;;;;;;;2.00;2.00;;;;;22.49;100.00;100782.56;5089906;27;45457;-74
2022/09/09 11:18:49;;;;;;;;;2.00;2.00;;;;;22.44;100.00;100795.31;5075848;27;45534;-73
2022/09/09 11:21:23;;;;;;;;;4.00;3.00;;;;;22.33;100.00;100786.78;5095133;27;45757;-73
2022/09/09 11:23:54;;;;;;;;;3.00;1.67;;;;;22.33;100.00;100772.44;5075890;27;47563;-73
2022/09/09 11:26:37;;;;;;;;;1.00;1.00;;;;;22.40;100.00;100777.53;5075266;27;45707;-74
2022/09/09 11:29:34;;;;;;;;;1.00;1.00;;;;;22.54;100.00;100778.81;5073261;28;46074;-75
2022/09/09 11:32:02;;;;;;;;;5.00;2.00;;;;;22.54;100.00;100785.06;5084240;27;45442;-73
2022/09/09 11:34:49;;;;;;;;;1.00;1.00;;;;;22.49;100.00;100808.59;5094117;27;46656;-73
2022/09/09 11:37:17;;;;;;;;;5.00;2.00;;;;;22.47;100.00;100799.69;5093421;27;45468;-74
2022/09/09 11:39:57;;;;;;;;;3.00;1.33;;;;;22.47;100.00;100803.25;5094470;27;45585;-74
2022/09/09 11:42:24;;;;;;;;;3.00;1.67;;;;;22.44;100.00;100799.81;5093334;27;45664;-73
2022/09/09 11:44:50;;;;;;;;;3.00;1.33;;;;;22.39;100.00;100802.69;5092003;27;46616;-75
2022/09/09 11:47:29;;;;;;;;;3.33;2.00;;;;;22.36;100.00;100808.16;5074322;27;45520;-75
2022/09/09 11:49:55;;;;;;;;;1.00;1.00;;;;;22.33;100.00;100802.03;5090889;27;45346;-73